createdAt,value
2022-07-30T00:01:17.588Z,95945.66
2022-07-30T00:03:44.511Z,95942.16
2022-07-30T00:06:11.309Z,95939.31
2022-07-30T00:09:55.747Z,95943.97
2022-07-30T00:12:22.492Z,95939.16
2022-07-30T00:14:49.265Z,95937.69
2022-07-30T00:17:16.005Z,95940.16
2022-07-30T00:19:44.101Z,95935.34
2022-07-30T00:22:11.660Z,95934.75
2022-07-30T00:24:38.370Z,95928.50
2022-07-30T00:27:05.173Z,95939.91
2022-07-30T00:29:31.934Z,95939.44
2022-07-30T00:31:58.702Z,95944.63
2022-07-30T00:34:25.427Z,95945.22
2022-07-30T00:36:52.727Z,95940.06
2022-07-30T00:39:19.427Z,95943.81
2022-07-30T00:42:03.618Z,95950.00
2022-07-30T00:44:30.883Z,95945.88
2022-07-30T00:46:58.132Z,95953.56
2022-07-30T00:49:25.746Z,95956.84
2022-07-30T00:51:52.906Z,95954.44
2022-07-30T00:54:21.472Z,95948.16
2022-07-30T00:56:49.011Z,95945.84
2022-07-30T00:59:16.302Z,95943.59
2022-07-30T01:01:43.379Z,95941.50
2022-07-30T01:04:11.936Z,95954.38
2022-07-30T01:06:39.955Z,95939.84
2022-07-30T01:09:07.755Z,95941.28
2022-07-30T01:11:38.108Z,95941.28
2022-07-30T01:14:06.824Z,95942.31
2022-07-30T01:16:35.926Z,95937.97
2022-07-30T01:19:28.312Z,95931.97
2022-07-30T01:22:09.665Z,95934.22
2022-07-30T01:24:41.519Z,95937.38
2022-07-30T01:27:10.581Z,95931.75
2022-07-30T01:29:39.925Z,95928.81
2022-07-30T01:32:09.047Z,95924.84
2022-07-30T01:34:37.829Z,95920.28
2022-07-30T01:37:05.983Z,95920.66
2022-07-30T01:39:33.867Z,95924.38
2022-07-30T01:42:05.441Z,95926.03
2022-07-30T01:44:33.113Z,95916.09
2022-07-30T01:47:01.964Z,95917.72
2022-07-30T01:49:30.135Z,95914.44
2022-07-30T01:51:58.731Z,95919.00
2022-07-30T01:54:28.043Z,95918.66
2022-07-30T01:56:58.019Z,95914.28
2022-07-30T01:59:26.782Z,95914.28
2022-07-30T02:01:53.584Z,95916.75
2022-07-30T02:04:20.594Z,95916.19
2022-07-30T02:06:59.286Z,95906.19
2022-07-30T02:09:34.267Z,95914.88
2022-07-30T02:12:21.517Z,95919.22
2022-07-30T02:14:53.842Z,95922.97
2022-07-30T02:17:39.576Z,95915.34
2022-07-30T02:20:10.674Z,95918.25
2022-07-30T02:22:40.391Z,95912.28
2022-07-30T02:25:10.602Z,95902.31
2022-07-30T02:27:40.390Z,95897.56
2022-07-30T02:30:08.111Z,95904.28
2022-07-30T02:32:37.766Z,95907.78
2022-07-30T02:35:11.280Z,95905.09
2022-07-30T02:37:43.341Z,95902.63
2022-07-30T02:40:14.321Z,95897.81
2022-07-30T02:42:43.749Z,95902.16
2022-07-30T02:45:12.009Z,95903.81
2022-07-30T02:47:41.127Z,95905.47
2022-07-30T02:50:10.194Z,95902.97
2022-07-30T02:52:40.490Z,95896.75
2022-07-30T02:55:10.027Z,95898.41
2022-07-30T02:57:43.311Z,95907.09
2022-07-30T03:00:12.011Z,95909.78
2022-07-30T03:02:40.810Z,95902.16
2022-07-30T03:05:14.094Z,95922.09
2022-07-30T03:07:41.551Z,95916.91
2022-07-30T03:10:09.620Z,95915.25
2022-07-30T03:12:37.970Z,95915.88
2022-07-30T03:15:05.278Z,95916.25
2022-07-30T03:17:38.281Z,95931.38
2022-07-30T03:20:08.951Z,95924.94
2022-07-30T03:22:41.648Z,95931.97
2022-07-30T03:25:10.357Z,95939.13
2022-07-30T03:27:38.892Z,95939.91
2022-07-30T03:30:07.610Z,95940.84
2022-07-30T03:32:35.574Z,95934.59
2022-07-30T03:35:06.376Z,95936.72
2022-07-30T03:37:37.063Z,95935.66
2022-07-30T03:40:05.502Z,95941.88
2022-07-30T03:42:33.841Z,95944.59
2022-07-30T03:45:05.866Z,95948.72
2022-07-30T03:47:34.832Z,95948.31
2022-07-30T03:50:02.205Z,95952.91
2022-07-30T03:52:29.704Z,95959.56
2022-07-30T03:54:56.516Z,95958.50
2022-07-30T03:57:23.684Z,95957.44
2022-07-30T03:59:51.867Z,95968.63
2022-07-30T04:02:18.700Z,95961.97
2022-07-30T04:04:45.524Z,95965.69
2022-07-30T04:07:12.208Z,95959.50
2022-07-30T04:09:38.963Z,95964.50
2022-07-30T04:12:05.894Z,95960.53
2022-07-30T04:14:43.316Z,95970.72
2022-07-30T04:17:16.182Z,95966.16
2022-07-30T04:19:48.245Z,95968.16
2022-07-30T04:22:21.153Z,95968.16
2022-07-30T04:24:49.353Z,95965.47
2022-07-30T04:27:17.489Z,95966.50
2022-07-30T04:29:44.440Z,95966.50
2022-07-30T04:32:11.860Z,95968.16
2022-07-30T04:34:46.691Z,95966.09
2022-07-30T04:37:13.220Z,95972.28
2022-07-30T04:39:39.917Z,95975.38
2022-07-30T04:42:06.699Z,95979.34
2022-07-30T04:44:34.416Z,95982.28
2022-07-30T04:47:01.487Z,95989.75
2022-07-30T04:49:28.936Z,95986.81
2022-07-30T04:51:56.713Z,95988.94
2022-07-30T04:54:25.594Z,95990.59
2022-07-30T04:56:54.261Z,95986.00
2022-07-30T04:59:25.374Z,95991.63
2022-07-30T05:01:56.272Z,95986.47
2022-07-30T05:04:25.118Z,95986.47
2022-07-30T05:06:52.549Z,95993.72
2022-07-30T05:09:19.931Z,95993.72
2022-07-30T05:11:54.324Z,95991.00
2022-07-30T05:14:22.002Z,95996.88
2022-07-30T05:16:49.755Z,95994.16
2022-07-30T05:19:19.321Z,95987.50
2022-07-30T05:21:46.190Z,95990.22
2022-07-30T05:24:13.274Z,95998.53
2022-07-30T05:26:40.528Z,95990.84
2022-07-30T05:29:08.181Z,95993.19
2022-07-30T05:31:35.628Z,95995.06
2022-07-30T05:34:05.031Z,95997.31
2022-07-30T05:36:32.014Z,96000.59
2022-07-30T05:38:58.786Z,96001.06
2022-07-30T05:41:31.781Z,95997.69
2022-07-30T05:44:00.334Z,96001.44
2022-07-30T05:46:27.316Z,96003.91
2022-07-30T05:48:54.216Z,96012.97
2022-07-30T05:51:22.344Z,96001.16
2022-07-30T05:53:49.522Z,96010.44
2022-07-30T05:56:16.286Z,96004.81
2022-07-30T05:58:43.275Z,96002.13
2022-07-30T06:01:10.183Z,96016.66
2022-07-30T06:03:38.822Z,96006.09
2022-07-30T06:06:07.298Z,96022.66
2022-07-30T06:08:34.125Z,96020.31
2022-07-30T06:11:00.893Z,96019.88
2022-07-30T06:13:27.641Z,96018.16
2022-07-30T06:15:54.483Z,96019.59
2022-07-30T06:18:23.235Z,96023.91
2022-07-30T06:20:52.128Z,96021.59
2022-07-30T06:23:19.391Z,96018.09
2022-07-30T06:25:47.249Z,96030.38
2022-07-30T06:28:36.438Z,96028.94
2022-07-30T06:31:02.595Z,96027.28
2022-07-30T06:33:29.558Z,96031.66
2022-07-30T06:35:56.284Z,96029.75
2022-07-30T06:38:23.035Z,96038.25
2022-07-30T06:40:49.829Z,96038.25
2022-07-30T06:43:16.697Z,96037.78
2022-07-30T06:45:43.636Z,96037.19
2022-07-30T06:48:10.334Z,96042.59
2022-07-30T06:50:37.449Z,96041.53
2022-07-30T06:53:04.214Z,96045.06
2022-07-30T06:55:30.930Z,96048.19
2022-07-30T06:57:57.725Z,96043.88
2022-07-30T07:00:24.498Z,96038.81
2022-07-30T07:02:51.704Z,96043.19
2022-07-30T07:05:18.900Z,96042.94
2022-07-30T07:07:57.896Z,96040.03
2022-07-30T07:10:25.427Z,96037.47
2022-07-30T07:12:52.349Z,96033.28
2022-07-30T07:15:19.252Z,96033.75
2022-07-30T07:17:49.296Z,96035.00
2022-07-30T07:20:16.069Z,96040.19
2022-07-30T07:22:42.807Z,96039.59
2022-07-30T07:25:12.130Z,96052.03
2022-07-30T07:27:38.901Z,96051.44
2022-07-30T07:30:07.338Z,96043.34
2022-07-30T07:32:35.303Z,96053.09
2022-07-30T07:35:02.196Z,96043.72
2022-07-30T07:37:29.018Z,96045.81
2022-07-30T07:39:55.824Z,96046.63
2022-07-30T07:42:22.564Z,96043.50
2022-07-30T07:44:49.300Z,96033.28
2022-07-30T07:47:16.012Z,96039.28
2022-07-30T07:49:42.878Z,96046.13
2022-07-30T07:52:09.613Z,96041.06
2022-07-30T07:54:36.250Z,96039.00
2022-07-30T07:57:08.735Z,96042.28
2022-07-30T07:59:40.121Z,96032.09
2022-07-30T08:02:08.865Z,96037.44
2022-07-30T08:04:36.451Z,96039.19
2022-07-30T08:07:04.231Z,96030.56
2022-07-30T08:09:43.750Z,96037.75
2022-07-30T08:12:12.930Z,96036.22
2022-07-30T08:14:39.930Z,96035.91
2022-07-30T08:17:07.305Z,96039.22
2022-07-30T08:19:34.535Z,96041.53
2022-07-30T08:22:01.255Z,96041.91
2022-07-30T08:24:27.913Z,96045.56
2022-07-30T08:26:54.642Z,96042.78
2022-07-30T08:29:21.323Z,96044.69
2022-07-30T08:31:48.034Z,96044.94
2022-07-30T08:34:15.277Z,96046.50
2022-07-30T08:36:42.376Z,96049.66
2022-07-30T08:39:09.191Z,96052.47
2022-07-30T08:41:38.925Z,96047.31
2022-07-30T08:44:12.954Z,96044.84
2022-07-30T08:46:47.480Z,96062.91
2022-07-30T08:49:15.107Z,96059.19
2022-07-30T08:51:42.629Z,96057.81
2022-07-30T08:54:09.713Z,96060.91
2022-07-30T08:56:37.288Z,96058.44
2022-07-30T08:59:04.471Z,96056.34
2022-07-30T09:01:31.274Z,96052.00
2022-07-30T09:03:58.044Z,96046.59
2022-07-30T09:06:24.858Z,96040.94
2022-07-30T09:08:51.575Z,96044.81
2022-07-30T09:11:18.319Z,96044.34
2022-07-30T09:13:45.165Z,96048.22
2022-07-30T09:16:23.557Z,96046.09
2022-07-30T09:18:51.323Z,96053.25
2022-07-30T09:21:27.094Z,96048.81
2022-07-30T09:24:02.806Z,96048.94
2022-07-30T09:26:31.371Z,96039.03
2022-07-30T09:29:21.566Z,96056.94
2022-07-30T09:32:08.172Z,96045.63
2022-07-30T09:34:36.022Z,96041.97
2022-07-30T09:37:12.555Z,96061.97
2022-07-30T09:39:41.862Z,96054.47
2022-07-30T09:42:21.782Z,96052.00
2022-07-30T09:44:49.081Z,96043.03
2022-07-30T09:47:41.783Z,96038.09
2022-07-30T09:50:11.329Z,96051.63
2022-07-30T09:52:44.120Z,96048.09
2022-07-30T09:55:28.563Z,96037.13
2022-07-30T09:57:59.326Z,96051.13
2022-07-30T10:00:30.428Z,96044.78
2022-07-30T10:02:57.635Z,96040.63
2022-07-30T10:05:25.060Z,96046.22
2022-07-30T10:07:55.660Z,96038.09
2022-07-30T10:10:31.073Z,96041.16
2022-07-30T10:13:04.579Z,96038.47
2022-07-30T10:15:36.530Z,96039.03
2022-07-30T10:18:06.290Z,96040.22
2022-07-30T10:20:35.128Z,96041.94
2022-07-30T10:23:08.002Z,96032.75
2022-07-30T10:25:36.770Z,96029.78
2022-07-30T10:28:17.125Z,96035.47
2022-07-30T10:30:43.987Z,96027.19
2022-07-30T10:33:34.602Z,96030.84
2022-07-30T10:35:59.223Z,96034.41
2022-07-30T10:38:34.453Z,96031.00
2022-07-30T10:41:43.154Z,96034.06
2022-07-30T10:44:20.766Z,96027.91
2022-07-30T10:47:09.204Z,96027.91
2022-07-30T10:49:41.568Z,96030.84
2022-07-30T10:52:10.560Z,96034.97
2022-07-30T10:54:47.556Z,96034.00
2022-07-30T10:57:22.830Z,96030.22
2022-07-30T11:00:00.566Z,96036.13
2022-07-30T11:02:30.711Z,96031.06
2022-07-30T11:05:43.705Z,96039.28
2022-07-30T11:08:35.727Z,96037.13
2022-07-30T11:11:19.146Z,96035.03
2022-07-30T11:14:00.193Z,96032.88
2022-07-30T11:16:32.829Z,96036.19
2022-07-30T11:19:54.976Z,96029.78
2022-07-30T11:22:29.762Z,96023.19
2022-07-30T11:24:57.641Z,96027.47
2022-07-30T11:27:48.851Z,96019.97
2022-07-30T11:30:17.409Z,96023.81
2022-07-30T11:32:56.322Z,96025.66
2022-07-30T11:35:34.590Z,96022.44
2022-07-30T11:38:19.083Z,96027.88
2022-07-30T11:40:45.942Z,96021.28
2022-07-30T11:43:20.351Z,96022.94
2022-07-30T11:46:10.450Z,96018.66
2022-07-30T11:48:40.260Z,96014.38
2022-07-30T11:51:07.407Z,96021.94
2022-07-30T11:53:34.790Z,96017.66
2022-07-30T11:56:03.559Z,96017.91
2022-07-30T11:58:37.390Z,96017.50
2022-07-30T12:01:16.141Z,96010.09
2022-07-30T12:03:45.082Z,96008.78
2022-07-30T12:06:19.760Z,96003.28
2022-07-30T12:08:48.862Z,96010.94
2022-07-30T12:11:15.917Z,95999.63
2022-07-30T12:13:46.115Z,96000.31
2022-07-30T12:16:16.197Z,95995.75
2022-07-30T12:18:43.312Z,95988.84
2022-07-30T12:21:12.792Z,95989.56
2022-07-30T12:23:39.759Z,95992.34
2022-07-30T12:26:06.550Z,95993.69
2022-07-30T12:28:35.146Z,95983.94
2022-07-30T12:31:04.489Z,95991.41
2022-07-30T12:33:31.564Z,95992.78
2022-07-30T12:36:01.020Z,95995.88
2022-07-30T12:38:29.103Z,95991.78
2022-07-30T12:41:06.339Z,95988.72
2022-07-30T12:43:55.928Z,95992.31
2022-07-30T12:46:23.814Z,95981.97
2022-07-30T12:48:55.455Z,95985.94
2022-07-30T12:51:24.485Z,95976.47
2022-07-30T12:53:53.144Z,95982.81
2022-07-30T12:56:27.652Z,95978.16
2022-07-30T12:58:55.791Z,95984.94
2022-07-30T13:01:45.039Z,95978.69
2022-07-30T13:04:13.523Z,95972.69
2022-07-30T13:06:43.702Z,95976.03
2022-07-30T13:09:21.641Z,95970.28
2022-07-30T13:11:49.356Z,95968.38
2022-07-30T13:14:17.459Z,95977.00
2022-07-30T13:16:44.422Z,95968.47
2022-07-30T13:19:12.319Z,95978.06
2022-07-30T13:21:40.581Z,95974.38
2022-07-30T13:24:18.129Z,95968.50
2022-07-30T13:26:45.538Z,95955.13
2022-07-30T13:29:13.685Z,95963.97
2022-07-30T13:31:42.958Z,95955.19
2022-07-30T13:34:11.287Z,95946.81
2022-07-30T13:36:38.210Z,95945.69
2022-07-30T13:39:04.897Z,95943.63
2022-07-30T13:41:31.770Z,95940.47
2022-07-30T13:43:58.482Z,95946.19
2022-07-30T13:46:25.207Z,95941.50
2022-07-30T13:48:52.236Z,95946.53
2022-07-30T13:51:19.109Z,95946.88
2022-07-30T13:53:46.103Z,95950.97
2022-07-30T13:56:13.230Z,95948.94
2022-07-30T13:58:40.860Z,95930.34
2022-07-30T14:01:07.698Z,95938.09
2022-07-30T14:03:35.461Z,95944.06
2022-07-30T14:06:10.959Z,95937.50
2022-07-30T14:08:38.838Z,95944.06
2022-07-30T14:11:05.783Z,95945.06
2022-07-30T14:13:32.499Z,95935.84
2022-07-30T14:15:59.581Z,95945.06
2022-07-30T14:18:26.365Z,95948.03
2022-07-30T14:20:53.825Z,95955.28
2022-07-30T14:23:20.729Z,95952.81
2022-07-30T14:25:47.734Z,95951.00
2022-07-30T14:28:15.055Z,95956.06
2022-07-30T14:30:42.127Z,95947.50
2022-07-30T14:33:08.916Z,95955.81
2022-07-30T14:35:35.960Z,95950.09
2022-07-30T14:38:03.666Z,95957.56
2022-07-30T14:40:30.679Z,95952.66
2022-07-30T14:42:57.960Z,95957.09
2022-07-30T14:45:25.503Z,95949.97
2022-07-30T14:47:53.051Z,95947.44
2022-07-30T14:50:19.915Z,95947.97
2022-07-30T14:52:47.607Z,95950.34
2022-07-30T14:55:14.658Z,95942.72
2022-07-30T14:57:43.542Z,95944.69
2022-07-30T15:00:11.947Z,95950.88
2022-07-30T15:02:38.818Z,95944.31
2022-07-30T15:05:06.167Z,95948.31
2022-07-30T15:07:34.742Z,95953.78
2022-07-30T15:10:02.625Z,95947.69
2022-07-30T15:12:29.497Z,95958.00
2022-07-30T15:14:56.205Z,95966.09
2022-07-30T15:17:22.951Z,95964.25
2022-07-30T15:19:50.428Z,95972.84
2022-07-30T15:22:18.757Z,95974.41
2022-07-30T15:24:45.467Z,95973.81
2022-07-30T15:27:12.226Z,95975.31
2022-07-30T15:29:38.961Z,95972.38
2022-07-30T15:32:06.474Z,95960.28
2022-07-30T15:34:35.102Z,95967.78
2022-07-30T15:37:06.450Z,95969.31
2022-07-30T15:39:33.910Z,95971.94
2022-07-30T15:42:02.211Z,95973.97
2022-07-30T15:44:29.900Z,95969.59
2022-07-30T15:46:56.690Z,95972.31
2022-07-30T15:49:23.748Z,95973.97
2022-07-30T15:51:51.847Z,95973.34
2022-07-30T15:54:23.324Z,95974.91
2022-07-30T15:56:51.552Z,95976.19
2022-07-30T15:59:18.545Z,95972.44
2022-07-30T16:01:45.490Z,95978.66
2022-07-30T16:04:19.453Z,95976.19
2022-07-30T16:06:47.961Z,95983.25
2022-07-30T16:09:17.602Z,95983.47
2022-07-30T16:11:44.435Z,95970.19
2022-07-30T16:14:13.589Z,95974.44
2022-07-30T16:16:40.286Z,95970.19
2022-07-30T16:19:07.514Z,95982.56
2022-07-30T16:21:34.845Z,95983.63
2022-07-30T16:24:02.182Z,95983.63
2022-07-30T16:26:29.081Z,95989.72
2022-07-30T16:28:55.782Z,95976.78
2022-07-30T16:31:22.773Z,95985.97
2022-07-30T16:33:50.071Z,95990.44
2022-07-30T16:36:17.042Z,95994.44
2022-07-30T16:38:43.763Z,95990.09
2022-07-30T16:41:13.431Z,95992.56
2022-07-30T16:43:40.811Z,95993.66
2022-07-30T16:46:07.603Z,95994.44
2022-07-30T16:48:34.355Z,95989.41
2022-07-30T16:51:01.035Z,95990.81
2022-07-30T16:53:28.517Z,95993.53
2022-07-30T16:55:57.082Z,95978.09
2022-07-30T16:58:28.333Z,95991.44
2022-07-30T17:00:58.255Z,95998.47
2022-07-30T17:03:25.579Z,96004.00
2022-07-30T17:05:52.424Z,96011.19
2022-07-30T17:08:19.577Z,96017.41
2022-07-30T17:10:52.420Z,96006.94
2022-07-30T17:13:19.359Z,96019.81
2022-07-30T17:15:46.941Z,96017.09
2022-07-30T17:18:14.151Z,96027.22
2022-07-30T17:20:41.018Z,96022.41
2022-07-30T17:23:07.940Z,96025.69
2022-07-30T17:25:34.770Z,96044.03
2022-07-30T17:28:02.040Z,96045.41
2022-07-30T17:30:30.041Z,96050.44
2022-07-30T17:32:56.780Z,96050.50
2022-07-30T17:35:24.857Z,96062.81
2022-07-30T17:37:51.901Z,96059.47
2022-07-30T17:40:28.369Z,96067.28
2022-07-30T17:43:03.719Z,96061.88
2022-07-30T17:45:32.375Z,96068.44
2022-07-30T17:47:59.051Z,96074.00
2022-07-30T17:50:25.780Z,96078.69
2022-07-30T17:52:52.492Z,96073.38
2022-07-30T17:55:19.350Z,96075.47
2022-07-30T17:57:46.077Z,96074.97
2022-07-30T18:00:13.557Z,96081.88
2022-07-30T18:02:40.296Z,96084.22
2022-07-30T18:05:07.450Z,96086.19
2022-07-30T18:07:34.142Z,96083.69
2022-07-30T18:10:00.872Z,96093.31
2022-07-30T18:12:27.627Z,96091.72
2022-07-30T18:19:47.759Z,96103.91
2022-07-30T18:23:45.343Z,96109.00
2022-07-30T18:26:12.566Z,96113.19
2022-07-30T18:28:39.319Z,96112.22
2022-07-30T18:31:06.418Z,96106.41
2022-07-30T18:33:33.130Z,96105.91
2022-07-30T18:35:59.889Z,96118.53
2022-07-30T18:38:26.632Z,96114.88
2022-07-30T18:40:59.165Z,96123.63
2022-07-30T18:43:30.260Z,96116.91
2022-07-30T18:45:58.086Z,96118.78
2022-07-30T18:48:25.297Z,96126.50
2022-07-30T18:50:53.119Z,96128.84
2022-07-30T18:53:20.402Z,96132.38
2022-07-30T18:55:47.279Z,96132.00
2022-07-30T18:58:14.299Z,96122.47
2022-07-30T19:00:44.026Z,96131.81
2022-07-30T19:03:16.302Z,96129.94
2022-07-30T19:05:44.545Z,96140.34
2022-07-30T19:08:11.360Z,96138.69
2022-07-30T19:10:38.160Z,96149.47
2022-07-30T19:13:04.904Z,96139.13
2022-07-30T19:15:31.693Z,96141.00
2022-07-30T19:17:59.119Z,96145.81
2022-07-30T19:20:26.771Z,96153.50
2022-07-30T19:23:04.874Z,96144.19
2022-07-30T19:25:33.289Z,96165.09
2022-07-30T19:28:01.696Z,96166.16
2022-07-30T19:30:29.897Z,96170.47
2022-07-30T19:33:06.995Z,96157.06
2022-07-30T19:35:36.024Z,96164.13
2022-07-30T19:38:03.844Z,96159.59
2022-07-30T19:40:31.036Z,96164.97
2022-07-30T19:43:04.021Z,96161.44
2022-07-30T19:45:47.567Z,96156.06
2022-07-30T19:48:29.455Z,96155.25
2022-07-30T19:50:59.384Z,96154.84
2022-07-30T19:53:28.087Z,96146.38
2022-07-30T19:56:01.807Z,96153.03
2022-07-30T19:58:30.491Z,96151.34
2022-07-30T20:00:57.412Z,96154.47
2022-07-30T20:03:25.483Z,96159.44
2022-07-30T20:05:57.285Z,96168.34
2022-07-30T20:09:20.912Z,96176.63
2022-07-30T20:11:47.610Z,96166.91
2022-07-30T20:14:16.174Z,96167.28
2022-07-30T20:16:43.209Z,96169.38
2022-07-30T20:19:15.747Z,96171.47
2022-07-30T20:21:56.480Z,96177.06
2022-07-30T20:24:24.558Z,96167.91
2022-07-30T20:26:52.470Z,96172.28
2022-07-30T20:29:20.627Z,96165.25
2022-07-30T20:31:49.733Z,96165.66
2022-07-30T20:34:18.194Z,96162.97
2022-07-30T20:39:21.160Z,96149.09
2022-07-30T20:41:48.290Z,96143.34
2022-07-30T20:44:23.315Z,96152.22
2022-07-30T20:46:52.653Z,96148.28
2022-07-30T20:49:24.158Z,96149.53
2022-07-30T20:52:01.417Z,96149.94
2022-07-30T20:54:30.083Z,96148.94
2022-07-30T20:56:57.289Z,96149.09
2022-07-30T20:59:25.077Z,96144.38
2022-07-30T21:01:51.791Z,96142.09
2022-07-30T21:04:25.411Z,96153.22
2022-07-30T21:06:52.822Z,96144.56
2022-07-30T21:09:20.373Z,96147.47
2022-07-30T21:11:50.674Z,96146.63
2022-07-30T21:14:18.080Z,96155.47
2022-07-30T21:16:44.772Z,96147.78
2022-07-30T21:19:14.537Z,96156.22
2022-07-30T21:21:48.317Z,96156.88
2022-07-30T21:24:19.353Z,96157.47
2022-07-30T21:26:51.405Z,96156.88
2022-07-30T21:29:18.864Z,96158.91
2022-07-30T21:32:00.552Z,96153.72
2022-07-30T21:34:35.227Z,96150.38
2022-07-30T21:37:06.811Z,96154.69
2022-07-30T21:39:39.811Z,96150.97
2022-07-30T21:42:10.656Z,96152.59
2022-07-30T21:44:38.578Z,96154.22
2022-07-30T21:47:10.377Z,96154.22
2022-07-30T21:49:38.667Z,96155.88
2022-07-30T21:52:06.871Z,96152.38
2022-07-30T21:54:38.975Z,96163.31
2022-07-30T21:57:16.021Z,96164.97
2022-07-30T21:59:52.886Z,96157.31
2022-07-30T22:02:22.065Z,96157.09
2022-07-30T22:04:51.236Z,96156.66
2022-07-30T22:07:18.219Z,96156.97
2022-07-30T22:09:45.327Z,96154.31
2022-07-30T22:12:12.851Z,96152.69
2022-07-30T22:14:44.846Z,96148.19
2022-07-30T22:17:36.727Z,96147.13
2022-07-30T22:20:08.871Z,96150.91
2022-07-30T22:22:38.301Z,96145.72
2022-07-30T22:25:09.451Z,96150.88
2022-07-30T22:27:39.598Z,96152.09
2022-07-30T22:30:08.989Z,96145.09
2022-07-30T22:32:35.904Z,96146.56
2022-07-30T22:35:02.642Z,96145.13
2022-07-30T22:37:32.828Z,96141.44
2022-07-30T22:40:01.709Z,96143.91
2022-07-30T22:42:28.533Z,96154.19
2022-07-30T22:44:55.586Z,96144.28
2022-07-30T22:47:50.812Z,96154.53
2022-07-30T22:50:10.080Z,96154.50
2022-07-30T22:52:39.362Z,96157.81
2022-07-30T22:55:09.096Z,96155.25
2022-07-30T22:57:38.562Z,96160.41
2022-07-30T23:00:11.435Z,96157.72
2022-07-30T23:02:40.136Z,96154.38
2022-07-30T23:05:10.738Z,96156.81
2022-07-30T23:07:39.800Z,96157.66
2022-07-30T23:10:12.391Z,96161.16
2022-07-30T23:12:47.766Z,96153.69
2022-07-30T23:15:14.913Z,96160.47
2022-07-30T23:17:41.686Z,96153.63
2022-07-30T23:20:11.568Z,96148.84
2022-07-30T23:22:38.864Z,96156.13
2022-07-30T23:25:07.944Z,96155.47
2022-07-30T23:27:34.853Z,96152.78
2022-07-30T23:30:01.678Z,96145.00
2022-07-30T23:32:28.498Z,96149.50
2022-07-30T23:34:55.349Z,96140.19
2022-07-30T23:37:22.105Z,96137.75
2022-07-30T23:39:48.860Z,96131.03
2022-07-30T23:42:15.580Z,96143.16
2022-07-30T23:44:42.365Z,96139.72
2022-07-30T23:47:09.165Z,96142.66
2022-07-30T23:49:35.960Z,96130.72
2022-07-30T23:52:02.924Z,96134.00
2022-07-30T23:54:29.686Z,96126.47
2022-07-30T23:56:56.622Z,96131.97
2022-07-30T23:59:24.209Z,96133.00
